Time;durP1;ratioP1;P1;durP2;ratioP2;P2;SDS_P1;SDS_P2;PMS_P1;PMS_P2;Temp;Humidity;BMP_temperature;BMP_pressure;BME280_temperature;BME280_humidity;BME280_pressure;Samples;Min_cycle;Max_cycle;Signal;HPM_P1;HPM_P2
2023/03/20 00:02:05;;;;;;;8.75;7.88;;;8.60;99.90;;;;;;5032992;28;20292;-84
2023/03/20 00:04:34;;;;;;;9.05;8.25;;;8.70;99.90;;;;;;5032707;28;20285;-84
2023/03/20 00:07:02;;;;;;;9.25;8.35;;;8.70;99.90;;;;;;5032053;28;20306;-84
2023/03/20 00:09:31;;;;;;;9.00;8.20;;;8.70;99.90;;;;;;5032680;28;20297;-84
2023/03/20 00:12:00;;;;;;;9.85;8.23;;;8.70;99.90;;;;;;5032971;28;20202;-84
2023/03/20 00:14:30;;;;;;;8.50;7.70;;;8.70;99.90;;;;;;5032538;28;20253;-84
2023/03/20 00:16:59;;;;;;;11.10;8.90;;;8.80;99.90;;;;;;5032110;28;20206;-84
2023/03/20 00:19:29;;;;;;;9.82;8.13;;;8.80;99.90;;;;;;5032337;28;20293;-84
2023/03/20 00:21:58;;;;;;;11.15;7.95;;;8.80;99.90;;;;;;5032337;28;20268;-84
2023/03/20 00:24:27;;;;;;;7.82;7.18;;;8.90;99.90;;;;;;5032294;28;20234;-84
2023/03/20 00:26:55;;;;;;;8.63;6.97;;;8.90;99.90;;;;;;5031876;28;20222;-84
2023/03/20 00:29:26;;;;;;;9.63;8.63;;;8.90;99.90;;;;;;5032059;28;20241;-85
2023/03/20 00:31:56;;;;;;;10.45;8.07;;;9.00;99.90;;;;;;5032303;28;20237;-84
2023/03/20 00:34:27;;;;;;;9.60;8.25;;;9.00;99.90;;;;;;5032490;28;20286;-84
2023/03/20 00:36:56;;;;;;;8.88;8.07;;;9.00;99.90;;;;;;5031976;28;20194;-84
2023/03/20 00:39:27;;;;;;;9.88;8.40;;;9.00;99.90;;;;;;5032499;28;20210;-84
2023/03/20 00:41:58;;;;;;;11.32;9.70;;;9.00;99.90;;;;;;5032260;28;20241;-84
2023/03/20 00:44:29;;;;;;;11.20;8.65;;;9.10;99.90;;;;;;5031949;28;20199;-84
2023/03/20 00:47:01;;;;;;;9.13;8.10;;;9.10;99.90;;;;;;5031566;28;20226;-84
2023/03/20 00:49:32;;;;;;;12.02;8.90;;;9.10;99.90;;;;;;5031593;28;20229;-84
2023/03/20 00:52:01;;;;;;;10.52;8.93;;;9.10;99.90;;;;;;5032113;28;20213;-85
2023/03/20 00:54:30;;;;;;;15.55;8.80;;;9.20;99.90;;;;;;5032043;28;20266;-84
2023/03/20 00:57:00;;;;;;;12.73;9.82;;;9.10;99.90;;;;;;5031913;28;20202;-83
2023/03/20 00:59:32;;;;;;;14.70;9.73;;;9.10;99.90;;;;;;5034997;28;20301;-84
2023/03/20 01:02:02;;;;;;;10.82;8.55;;;9.20;99.90;;;;;;5035793;28;20245;-84
2023/03/20 01:04:36;;;;;;;12.15;9.13;;;9.20;99.90;;;;;;5036101;28;20202;-83
2023/03/20 01:07:05;;;;;;;10.63;9.15;;;9.20;99.90;;;;;;5035477;28;20272;-84
2023/03/20 01:09:34;;;;;;;11.35;9.23;;;9.20;99.90;;;;;;5035587;28;20210;-84
2023/03/20 01:12:03;;;;;;;9.70;8.68;;;9.20;99.90;;;;;;5035732;28;20210;-84
2023/03/20 01:14:31;;;;;;;9.60;8.50;;;9.20;99.90;;;;;;5035420;28;20249;-84
2023/03/20 01:17:02;;;;;;;9.35;7.47;;;9.20;99.90;;;;;;5035151;28;20214;-83
2023/03/20 01:19:30;;;;;;;8.65;7.78;;;9.20;99.90;;;;;;5035477;28;20234;-83
2023/03/20 01:21:58;;;;;;;11.32;8.85;;;9.10;99.90;;;;;;5035435;28;20249;-83
2023/03/20 01:24:26;;;;;;;13.73;8.88;;;9.10;99.90;;;;;;5035601;28;20230;-83
2023/03/20 01:26:55;;;;;;;10.60;9.38;;;9.10;99.90;;;;;;5034714;28;20317;-83
2023/03/20 01:29:26;;;;;;;12.55;9.73;;;9.00;99.90;;;;;;5035549;28;20844;-83
2023/03/20 01:31:54;;;;;;;9.15;7.95;;;9.00;99.90;;;;;;5035778;28;20222;-84
2023/03/20 01:34:26;;;;;;;14.57;8.95;;;9.00;99.90;;;;;;5035379;28;20212;-79
2023/03/20 01:36:57;;;;;;;9.68;8.07;;;8.90;99.90;;;;;;5034871;28;20229;-83
2023/03/20 01:39:32;;;;;;;13.90;10.73;;;8.90;99.90;;;;;;5033682;28;20210;-83
2023/03/20 01:42:01;;;;;;;9.15;7.90;;;8.80;99.90;;;;;;5035158;28;20237;-84
2023/03/20 01:44:32;;;;;;;11.13;9.13;;;8.80;99.90;;;;;;5035198;28;20234;-83
2023/03/20 01:47:03;;;;;;;15.23;10.13;;;8.80;99.90;;;;;;5034141;28;20226;-83
2023/03/20 01:50:08;;;;;;;11.32;9.68;;;8.70;99.90;;;;;;5034721;28;20301;-83
2023/03/20 01:52:38;;;;;;;11.75;9.98;;;8.70;99.90;;;;;;5035255;28;20202;-84
2023/03/20 01:55:07;;;;;;;9.73;8.75;;;8.70;99.90;;;;;;5034883;28;20293;-84
2023/03/20 01:57:36;;;;;;;10.40;9.30;;;8.80;99.90;;;;;;5034097;28;20209;-84
2023/03/20 02:00:08;;;;;;;11.30;9.65;;;8.90;99.90;;;;;;5034632;28;20230;-84
2023/03/20 02:02:38;;;;;;;13.30;10.13;;;8.90;99.90;;;;;;5035199;28;20206;-84
2023/03/20 02:05:09;;;;;;;11.05;9.27;;;8.90;99.90;;;;;;5034705;28;20264;-85
2023/03/20 02:07:39;;;;;;;11.32;10.07;;;9.00;99.90;;;;;;5033912;28;20224;-85
2023/03/20 02:10:11;;;;;;;14.82;10.13;;;9.00;99.90;;;;;;5034324;28;20260;-85
2023/03/20 02:12:41;;;;;;;12.93;9.57;;;9.00;99.90;;;;;;5034655;28;20293;-85
2023/03/20 02:15:11;;;;;;;15.30;9.43;;;9.10;99.90;;;;;;5034727;28;20289;-84
2023/03/20 02:17:41;;;;;;;13.38;10.88;;;9.10;99.90;;;;;;5033970;28;20203;-85
2023/03/20 02:20:20;;;;;;;12.57;9.85;;;9.10;99.90;;;;;;5034104;28;20320;-85
2023/03/20 02:23:35;;;;;;;11.10;9.90;;;9.10;99.90;;;;;;5034359;28;20237;-85
2023/03/20 02:26:22;;;;;;;10.50;9.40;;;9.10;99.90;;;;;;5028930;28;20206;-85
2023/03/20 02:29:25;;;;;;;10.85;9.55;;;9.10;99.90;;;;;;5033669;28;20241;-85
2023/03/20 02:32:22;;;;;;;10.88;9.77;;;9.00;99.90;;;;;;5034220;28;20278;-85
2023/03/20 02:35:25;;;;;;;11.30;10.10;;;9.00;99.90;;;;;;5034174;28;20206;-84
2023/03/20 02:38:21;;;;;;;9.77;8.82;;;9.10;99.90;;;;;;5033643;28;20259;-83
2023/03/20 02:40:57;;;;;;;12.60;9.52;;;9.10;99.90;;;;;;5033384;28;20349;-83
2023/03/20 02:43:31;;;;;;;11.45;10.32;;;9.00;99.90;;;;;;5034069;28;20241;-83
2023/03/20 02:46:09;;;;;;;14.35;10.52;;;9.00;99.90;;;;;;5034219;28;20305;-83
2023/03/20 02:48:46;;;;;;;11.18;9.05;;;9.00;99.90;;;;;;5032852;28;20225;-83
2023/03/20 02:51:19;;;;;;;10.40;9.40;;;8.90;99.90;;;;;;5034342;28;20229;-83
2023/03/20 02:53:55;;;;;;;14.48;10.93;;;8.90;99.90;;;;;;5033417;28;20218;-84
2023/03/20 02:56:32;;;;;;;19.52;9.80;;;9.00;99.90;;;;;;5033805;28;20213;-84
2023/03/20 02:59:08;;;;;;;12.98;10.30;;;8.90;99.90;;;;;;5033386;28;20216;-83
2023/03/20 03:01:41;;;;;;;13.82;12.30;;;8.90;99.90;;;;;;5033897;28;20317;-83
2023/03/20 03:04:13;;;;;;;11.13;10.05;;;9.00;99.90;;;;;;5033721;28;20206;-83
2023/03/20 03:06:44;;;;;;;11.48;10.27;;;9.10;99.90;;;;;;5033441;28;20209;-84
2023/03/20 03:09:19;;;;;;;12.40;11.07;;;9.20;99.90;;;;;;5033493;28;20285;-84
2023/03/20 03:11:51;;;;;;;12.27;10.60;;;9.30;99.90;;;;;;5033487;28;20222;-83
2023/03/20 03:14:32;;;;;;;14.73;12.13;;;9.30;99.90;;;;;;5033782;28;20232;-84
2023/03/20 03:17:04;;;;;;;11.70;10.52;;;9.40;99.90;;;;;;5033007;28;20236;-84
2023/03/20 03:19:35;;;;;;;16.42;12.43;;;9.40;99.90;;;;;;5033154;28;20214;-85
2023/03/20 03:22:03;;;;;;;13.27;11.88;;;9.40;99.90;;;;;;5032788;28;20293;-85
2023/03/20 03:24:36;;;;;;;18.15;12.32;;;9.40;99.90;;;;;;5033150;28;20289;-85
2023/03/20 03:27:16;;;;;;;18.70;11.15;;;9.40;99.90;;;;;;5032870;28;20214;-83
2023/03/20 03:29:48;;;;;;;12.52;11.25;;;9.40;99.90;;;;;;5033058;28;20246;-84
2023/03/20 03:32:26;;;;;;;11.73;10.52;;;9.40;99.90;;;;;;5033212;28;20217;-84
2023/03/20 03:34:55;;;;;;;15.13;11.63;;;9.40;99.90;;;;;;5033230;28;20237;-84
2023/03/20 03:37:35;;;;;;;13.60;12.20;;;9.40;99.90;;;;;;5032644;28;20202;-84
2023/03/20 03:40:14;;;;;;;12.73;11.40;;;9.40;99.90;;;;;;5033555;28;20257;-84
2023/03/20 03:42:51;;;;;;;13.23;11.90;;;9.40;99.90;;;;;;5033201;28;20210;-84
2023/03/20 03:45:26;;;;;;;14.25;12.02;;;9.30;99.90;;;;;;5033115;28;20244;-84
2023/03/20 03:47:59;;;;;;;14.73;13.18;;;9.40;99.90;;;;;;5032002;28;20229;-83
2023/03/20 03:50:32;;;;;;;14.50;12.50;;;9.40;99.90;;;;;;5032376;28;20261;-84
2023/03/20 03:53:04;;;;;;;13.52;12.25;;;9.30;99.90;;;;;;5033093;28;20233;-84
2023/03/20 03:55:38;;;;;;;17.58;13.73;;;9.30;99.90;;;;;;5032937;28;20253;-84
2023/03/20 03:58:11;;;;;;;16.30;13.55;;;9.30;99.90;;;;;;5032314;28;20205;-84
2023/03/20 04:00:42;;;;;;;15.73;14.23;;;9.20;99.90;;;;;;5032507;28;20282;-84
2023/03/20 04:03:12;;;;;;;14.20;12.68;;;9.20;99.90;;;;;;5032814;28;20217;-84
2023/03/20 04:05:45;;;;;;;14.48;12.98;;;9.20;99.90;;;;;;5032638;28;20210;-84
2023/03/20 04:08:15;;;;;;;14.05;12.68;;;9.20;99.90;;;;;;5032112;28;20261;-84
2023/03/20 04:10:45;;;;;;;21.67;13.88;;;9.20;99.90;;;;;;5032352;28;20222;-84
2023/03/20 04:13:15;;;;;;;14.70;13.10;;;9.20;99.90;;;;;;5032883;28;20241;-84
2023/03/20 04:15:43;;;;;;;15.45;13.95;;;9.20;99.90;;;;;;5032506;28;20306;-84
2023/03/20 04:18:15;;;;;;;19.15;16.50;;;9.20;99.90;;;;;;5032084;28;20280;-84
2023/03/20 04:20:47;;;;;;;17.90;14.82;;;9.20;99.90;;;;;;5032330;28;20253;-84
2023/03/20 04:23:16;;;;;;;16.10;14.52;;;9.20;99.90;;;;;;5032262;28;20295;-84
2023/03/20 04:25:46;;;;;;;17.17;13.82;;;9.20;99.90;;;;;;5032724;28;20210;-84
2023/03/20 04:28:15;;;;;;;15.43;14.10;;;9.20;99.90;;;;;;5031887;28;20285;-83
2023/03/20 04:30:47;;;;;;;16.02;14.40;;;9.20;99.90;;;;;;5032256;28;20226;-83
2023/03/20 04:33:15;;;;;;;20.05;15.48;;;9.20;99.90;;;;;;5033766;28;20214;-83
2023/03/20 04:35:43;;;;;;;17.55;14.52;;;9.20;99.90;;;;;;5036062;28;20208;-84
2023/03/20 04:38:14;;;;;;;16.70;14.73;;;9.20;99.90;;;;;;5035962;28;20210;-79
2023/03/20 04:40:45;;;;;;;16.65;14.85;;;9.20;99.90;;;;;;5035199;28;20290;-79
2023/03/20 04:43:14;;;;;;;37.20;14.60;;;9.20;99.90;;;;;;5036279;28;20224;-79
2023/03/20 04:45:43;;;;;;;16.75;13.80;;;9.20;99.90;;;;;;5036242;28;20233;-79
2023/03/20 04:48:11;;;;;;;17.02;15.18;;;9.20;99.90;;;;;;5035427;28;20222;-79
2023/03/20 04:50:40;;;;;;;25.17;14.55;;;9.20;99.90;;;;;;5036069;28;20286;-79
2023/03/20 04:53:08;;;;;;;16.08;14.48;;;9.10;99.90;;;;;;5035777;28;20301;-79
2023/03/20 04:55:36;;;;;;;23.98;15.00;;;9.20;99.90;;;;;;5035873;28;20238;-79
2023/03/20 04:58:07;;;;;;;14.23;12.85;;;9.10;99.90;;;;;;5035473;28;20233;-79
2023/03/20 05:00:35;;;;;;;15.35;13.82;;;9.10;99.90;;;;;;5036151;28;20317;-79
2023/03/20 05:03:03;;;;;;;15.88;14.15;;;9.10;99.90;;;;;;5035718;28;20222;-79
2023/03/20 05:05:32;;;;;;;20.55;13.48;;;9.20;99.90;;;;;;5035671;28;20206;-79
2023/03/20 05:08:01;;;;;;;17.58;14.90;;;9.20;99.90;;;;;;5034912;28;20317;-79
2023/03/20 05:10:30;;;;;;;22.92;15.85;;;9.20;99.90;;;;;;5035746;28;20303;-79
2023/03/20 05:12:58;;;;;;;17.02;14.18;;;9.20;99.90;;;;;;5035571;28;20215;-79
2023/03/20 05:15:28;;;;;;;15.52;12.93;;;9.10;99.90;;;;;;5035686;28;20206;-79
2023/03/20 05:17:56;;;;;;;17.20;14.18;;;9.10;99.90;;;;;;5035127;28;20233;-79
2023/03/20 05:20:24;;;;;;;14.40;12.93;;;9.00;99.90;;;;;;5034770;28;20223;-79
2023/03/20 05:22:52;;;;;;;15.18;13.68;;;9.00;99.90;;;;;;5035834;28;20261;-79
2023/03/20 05:25:21;;;;;;;20.63;14.25;;;9.10;99.90;;;;;;5035596;28;20230;-79
2023/03/20 05:27:49;;;;;;;15.40;13.30;;;9.10;99.90;;;;;;5035133;28;20317;-80
2023/03/20 05:30:18;;;;;;;15.88;13.38;;;9.20;99.90;;;;;;5034965;28;20226;-79
2023/03/20 05:32:49;;;;;;;14.30;11.55;;;9.20;99.90;;;;;;5035275;28;20242;-79
2023/03/20 05:35:18;;;;;;;13.25;11.85;;;9.20;99.90;;;;;;5035495;28;20214;-79
2023/03/20 05:37:47;;;;;;;13.00;11.70;;;9.30;99.90;;;;;;5035228;28;20293;-79
2023/03/20 05:40:18;;;;;;;12.30;11.10;;;9.30;99.90;;;;;;5033810;28;20226;-79
2023/03/20 05:42:46;;;;;;;15.93;12.25;;;9.40;99.90;;;;;;5035137;28;20213;-79
2023/03/20 05:45:14;;;;;;;13.57;10.07;;;9.40;99.90;;;;;;5034645;28;20293;-80
2023/03/20 05:47:43;;;;;;;12.95;11.70;;;9.50;99.90;;;;;;5034419;28;20266;-79
2023/03/20 05:50:14;;;;;;;14.15;12.65;;;9.50;99.90;;;;;;5034602;28;20402;-79
2023/03/20 05:52:42;;;;;;;14.57;12.40;;;9.60;99.90;;;;;;5034947;28;20268;-80
2023/03/20 05:55:11;;;;;;;13.68;12.27;;;9.60;99.90;;;;;;5034803;28;20266;-79
2023/03/20 05:57:39;;;;;;;13.65;12.23;;;9.60;99.90;;;;;;5034312;28;20274;-80
2023/03/20 06:00:09;;;;;;;15.45;11.82;;;9.60;99.90;;;;;;5034908;28;20229;-80
2023/03/20 06:02:38;;;;;;;17.73;13.85;;;9.60;99.90;;;;;;5035087;28;20253;-80
2023/03/20 06:05:06;;;;;;;12.85;11.55;;;9.70;99.90;;;;;;5034723;28;20206;-80
2023/03/20 06:07:36;;;;;;;12.52;11.27;;;9.70;99.90;;;;;;5034254;28;20206;-79
2023/03/20 06:10:05;;;;;;;14.73;11.45;;;9.70;99.90;;;;;;5034044;28;20332;-79
2023/03/20 06:12:33;;;;;;;16.85;13.13;;;9.70;99.90;;;;;;5034648;28;20243;-79
2023/03/20 06:15:02;;;;;;;12.50;11.20;;;9.80;99.90;;;;;;5034398;28;20210;-79
2023/03/20 06:17:30;;;;;;;13.30;10.73;;;9.70;99.90;;;;;;5034341;28;20206;-80
2023/03/20 06:19:58;;;;;;;13.23;10.65;;;9.80;99.90;;;;;;5034231;28;20309;-79
2023/03/20 06:22:27;;;;;;;11.63;10.52;;;9.90;99.90;;;;;;5034196;28;20206;-79
2023/03/20 06:24:57;;;;;;;14.75;10.63;;;9.90;99.90;;;;;;5034669;28;20218;-80
2023/03/20 06:27:26;;;;;;;21.60;11.00;;;10.00;99.90;;;;;;5034197;28;20266;-79
2023/03/20 06:29:54;;;;;;;13.93;11.60;;;10.10;99.90;;;;;;5034032;28;20230;-79
2023/03/20 06:32:22;;;;;;;11.15;10.10;;;10.10;99.90;;;;;;5034080;28;20305;-79
2023/03/20 06:34:51;;;;;;;14.60;11.23;;;10.20;99.90;;;;;;5033896;28;20210;-79
2023/03/20 06:37:19;;;;;;;13.13;11.88;;;10.30;99.90;;;;;;5034056;28;20297;-79
2023/03/20 06:39:48;;;;;;;16.48;10.82;;;10.30;99.90;;;;;;5034067;28;20218;-79
2023/03/20 06:42:18;;;;;;;15.02;12.38;;;10.40;99.90;;;;;;5034336;28;20202;-79
2023/03/20 06:44:46;;;;;;;12.57;10.40;;;10.50;99.90;;;;;;5033987;28;20245;-79
2023/03/20 06:47:15;;;;;;;23.80;12.07;;;10.50;99.90;;;;;;5033365;28;20221;-79
2023/03/20 06:49:44;;;;;;;15.52;11.82;;;10.60;99.90;;;;;;5033561;28;20220;-79
2023/03/20 06:52:16;;;;;;;16.65;11.07;;;10.60;99.90;;;;;;5034043;28;20238;-79
2023/03/20 06:54:45;;;;;;;12.30;10.20;;;10.70;99.90;;;;;;5034014;28;20210;-79
2023/03/20 06:57:13;;;;;;;12.07;10.90;;;10.80;99.90;;;;;;5032855;28;20202;-79
2023/03/20 06:59:44;;;;;;;15.48;11.70;;;10.90;99.90;;;;;;5033464;28;20263;-80
2023/03/20 07:02:12;;;;;;;18.65;12.43;;;11.00;99.90;;;;;;5033851;28;20203;-79
2023/03/20 07:04:41;;;;;;;13.07;10.93;;;11.00;99.90;;;;;;5033608;28;20236;-80
2023/03/20 07:07:09;;;;;;;16.10;11.15;;;11.10;99.90;;;;;;5033280;28;20206;-79
2023/03/20 07:09:38;;;;;;;12.95;11.55;;;11.10;99.90;;;;;;5033319;28;20313;-79
2023/03/20 07:12:13;;;;;;;12.43;9.68;;;11.20;99.90;;;;;;5033773;28;20207;-79
2023/03/20 07:14:43;;;;;;;10.77;8.95;;;11.30;99.90;;;;;;5033291;28;20214;-79
2023/03/20 07:17:12;;;;;;;11.80;10.30;;;11.40;99.90;;;;;;5032844;28;20233;-78
2023/03/20 07:19:40;;;;;;;10.05;8.68;;;11.50;99.90;;;;;;5032965;28;20206;-79
2023/03/20 07:22:16;;;;;;;10.98;8.43;;;11.50;99.90;;;;;;5033216;28;20260;-79
2023/03/20 07:24:44;;;;;;;11.77;10.18;;;11.60;99.90;;;;;;5033257;28;20301;-79
2023/03/20 07:27:14;;;;;;;9.63;8.40;;;11.80;99.90;;;;;;5032336;28;20292;-79
2023/03/20 07:29:44;;;;;;;9.70;8.73;;;11.90;99.90;;;;;;5033054;28;20261;-79
2023/03/20 07:32:12;;;;;;;11.02;9.50;;;11.90;99.90;;;;;;5033744;28;20260;-79
2023/03/20 07:34:41;;;;;;;11.43;9.70;;;12.00;99.90;;;;;;5033431;28;20211;-79
2023/03/20 07:37:09;;;;;;;10.05;9.15;;;12.10;99.90;;;;;;5033011;28;20206;-79
2023/03/20 07:39:38;;;;;;;12.60;9.15;;;12.10;99.90;;;;;;5031694;28;20261;-79
2023/03/20 07:42:06;;;;;;;9.93;8.18;;;12.20;99.90;;;;;;5032885;28;20206;-79
2023/03/20 07:44:35;;;;;;;9.50;8.60;;;12.30;99.90;;;;;;5032537;28;20217;-79
2023/03/20 07:47:04;;;;;;;10.18;7.88;;;12.40;99.90;;;;;;5032561;28;20234;-79
2023/03/20 07:49:33;;;;;;;11.68;7.85;;;12.50;99.90;;;;;;5032569;28;20264;-78
2023/03/20 07:52:02;;;;;;;10.27;8.40;;;12.60;99.90;;;;;;5032695;28;20297;-79
2023/03/20 07:54:30;;;;;;;14.02;7.93;;;12.70;99.90;;;;;;5032706;28;20212;-79
2023/03/20 07:56:58;;;;;;;8.02;7.28;;;12.90;99.90;;;;;;5032679;28;20210;-79
2023/03/20 07:59:27;;;;;;;9.60;7.55;;;13.10;99.90;;;;;;5032780;28;20214;-79
2023/03/20 08:01:55;;;;;;;9.15;6.53;;;13.20;99.90;;;;;;5032868;28;20216;-79
2023/03/20 08:04:25;;;;;;;7.82;7.13;;;13.30;99.90;;;;;;5032912;28;20272;-79
2023/03/20 08:06:54;;;;;;;8.95;7.18;;;13.50;99.90;;;;;;5032064;28;20209;-79
2023/03/20 08:09:22;;;;;;;7.38;6.68;;;13.60;99.90;;;;;;5032733;28;20202;-79
2023/03/20 08:11:51;;;;;;;8.07;7.28;;;13.60;99.90;;;;;;5032411;28;20280;-79
2023/03/20 08:14:19;;;;;;;11.10;7.03;;;13.60;99.90;;;;;;5032652;28;20245;-79
2023/03/20 08:16:47;;;;;;;12.95;8.18;;;13.70;99.90;;;;;;5032164;28;20210;-79
2023/03/20 08:19:31;;;;;;;8.43;7.60;;;13.70;99.90;;;;;;5032443;28;20198;-79
2023/03/20 08:21:59;;;;;;;10.27;6.90;;;13.70;99.90;;;;;;5032373;28;20198;-79
2023/03/20 08:24:27;;;;;;;13.13;7.57;;;13.60;99.90;;;;;;5032487;28;20213;-79
2023/03/20 08:26:56;;;;;;;19.65;5.93;;;13.70;99.90;;;;;;5031782;28;20215;-79
2023/03/20 08:29:24;;;;;;;;;;;13.80;99.90;;;;;;5032938;28;20147;-79
2023/03/20 08:31:53;;;;;;;;;;;13.90;99.90;;;;;;5032704;28;19921;-79
2023/03/20 08:34:21;;;;;;;;;;;14.00;99.90;;;;;;5032855;28;20024;-79
2023/03/20 08:36:52;;;;;;;;;;;14.20;99.90;;;;;;5032544;28;19925;-79
2023/03/20 08:39:21;;;;;;;6.32;5.72;;;14.40;99.90;;;;;;5031497;28;20276;-79
2023/03/20 08:41:49;;;;;;;;;;;14.30;99.90;;;;;;5032701;28;20050;-79
2023/03/20 08:44:17;;;;;;;;;;;14.30;99.90;;;;;;5032657;28;19959;-79
2023/03/20 08:46:46;;;;;;;;;;;14.50;99.90;;;;;;5032410;28;20007;-79
2023/03/20 08:49:14;;;;;;;;;;;14.80;99.90;;;;;;5032330;28;19921;-79
2023/03/20 08:51:42;;;;;;;;;;;14.90;99.90;;;;;;5032070;28;20009;-79
2023/03/20 08:54:13;;;;;;;;;;;15.20;99.90;;;;;;5032895;28;19951;-79
2023/03/20 08:56:42;;;;;;;;;;;15.40;99.90;;;;;;5032826;28;19932;-79
2023/03/20 08:59:10;;;;;;;;;;;15.70;99.90;;;;;;5032717;28;20012;-79
2023/03/20 09:01:38;;;;;;;;;;;15.90;99.90;;;;;;5032559;28;20012;-79
2023/03/20 09:04:17;;;;;;;;;;;16.20;99.90;;;;;;5032594;28;19927;-79
2023/03/20 09:06:45;;;;;;;;;;;16.30;99.90;;;;;;5032352;28;19921;-79
2023/03/20 09:09:17;;;;;;;;;;;16.60;99.90;;;;;;5032679;28;19952;-79
2023/03/20 09:11:45;;;;;;;;;;;17.10;99.90;;;;;;5032262;28;19983;-79
2023/03/20 09:14:14;;;;;;;;;;;17.50;99.90;;;;;;5032500;28;19921;-79
2023/03/20 09:16:42;;;;;;;;;;;17.70;99.90;;;;;;5031995;28;20027;-79
2023/03/20 09:19:10;;;;;;;;;;;18.20;99.90;;;;;;5033671;28;19928;-79
2023/03/20 09:21:38;;;;;;;;;;;18.20;99.90;;;;;;5035923;28;19921;-79
2023/03/20 09:24:07;;;;;;;;;;;18.50;99.90;;;;;;5036048;28;19921;-79
2023/03/20 09:26:36;;;;;;;;;;;18.80;99.90;;;;;;5036324;28;20014;-84
2023/03/20 09:29:05;;;;;;;;;;;18.90;99.90;;;;;;5035411;28;19920;-85
2023/03/20 09:31:33;;;;;;;;;;;18.90;99.90;;;;;;5035360;28;19960;-85
2023/03/20 09:34:01;;;;;;;;;;;18.80;99.90;;;;;;5035943;28;19927;-85
2023/03/20 09:36:29;;;;;;;;;;;18.80;99.90;;;;;;5035607;28;19921;-85
2023/03/20 09:38:58;;;;;;;;;;;18.60;99.90;;;;;;5035405;28;19921;-85
2023/03/20 09:41:27;;;;;;;;;;;18.30;99.90;;;;;;5035501;28;19952;-85
2023/03/20 09:44:09;;;;;;;;;;;18.30;99.90;;;;;;5035732;28;19967;-85
2023/03/20 09:46:48;;;;;;;;;;;18.50;99.90;;;;;;5035460;28;19928;-85
2023/03/20 09:49:24;;;;;;;;;;;19.10;99.90;;;;;;5035529;28;19921;-85
2023/03/20 09:51:55;;;;;;;;;;;19.70;99.90;;;;;;5035732;28;19968;-86
2023/03/20 09:54:25;;;;;;;;;;;19.70;99.90;;;;;;5035636;28;19925;-85
2023/03/20 09:56:55;;;;;;;;;;;19.10;99.90;;;;;;5035040;28;20078;-86
2023/03/20 09:59:25;;;;;;;;;;;18.90;99.90;;;;;;5035649;28;19967;-85
2023/03/20 10:01:54;;;;;;;;;;;18.80;99.90;;;;;;5035517;28;20015;-85
2023/03/20 10:04:23;;;;;;;;;;;18.90;99.90;;;;;;5033682;28;19929;-85
2023/03/20 10:06:52;;;;;;;;;;;18.90;99.90;;;;;;5034797;28;19952;-85
2023/03/20 10:09:22;;;;;;;;;;;18.70;99.90;;;;;;5035038;28;19964;-85
2023/03/20 10:12:12;;;;;;;;;;;18.50;99.90;;;;;;5034771;28;19964;-83
2023/03/20 10:14:47;;;;;;;;;;;18.80;99.90;;;;;;5035063;28;19952;-83
2023/03/20 10:17:29;;;;;;;;;;;18.90;99.90;;;;;;5034697;28;19963;-85
2023/03/20 10:19:58;;;;;;;;;;;19.20;99.90;;;;;;5034862;28;19924;-84
2023/03/20 10:22:28;;;;;;;;;;;19.00;99.90;;;;;;5034789;28;19920;-84
2023/03/20 10:25:00;;;;;;;;;;;18.80;99.90;;;;;;5034598;28;19967;-85
2023/03/20 10:27:32;;;;;;;;;;;19.10;99.90;;;;;;5031620;28;19925;-84
2023/03/20 10:30:11;;;;;;;;;;;19.50;99.90;;;;;;5032277;28;20058;-84
2023/03/20 10:32:45;;;;;;;;;;;19.60;99.10;;;;;;5034288;28;19927;-84
2023/03/20 10:35:20;;;;;;;;;;;19.80;99.40;;;;;;5034753;28;19947;-84
2023/03/20 10:37:54;;;;;;;;;;;20.20;98.50;;;;;;5034090;28;19959;-84
2023/03/20 10:40:27;;;;;;;;;;;20.60;98.00;;;;;;5033513;28;19921;-84
2023/03/20 10:42:57;;;;;;;;;;;20.70;96.40;;;;;;5034386;28;19997;-84
2023/03/20 10:45:30;;;;;;;;;;;20.30;97.10;;;;;;5034343;28;19964;-84
2023/03/20 10:48:00;;;;;;;;;;;20.00;97.30;;;;;;5033788;28;19960;-84
2023/03/20 10:50:29;;;;;;;;;;;19.80;97.80;;;;;;5033862;28;19963;-85
2023/03/20 10:52:57;;;;;;;;;;;20.20;97.40;;;;;;5034287;28;20015;-84
2023/03/20 10:55:27;;;;;;;;;;;20.50;97.30;;;;;;5034045;28;19989;-84
2023/03/20 10:57:59;;;;;;;;;;;20.60;97.00;;;;;;5034136;28;19932;-84
2023/03/20 11:00:29;;;;;;;;;;;20.20;96.90;;;;;;5033935;28;19965;-85
2023/03/20 11:02:57;;;;;;;;;;;19.90;97.00;;;;;;5034195;28;19961;-85
2023/03/20 11:05:28;;;;;;;;;;;19.80;97.50;;;;;;5034554;28;19927;-84
2023/03/20 11:08:01;;;;;;;;;;;19.90;97.80;;;;;;5033712;28;19920;-85
2023/03/20 11:10:34;;;;;;;;;;;20.20;97.00;;;;;;5034302;28;19925;-84
2023/03/20 11:13:14;;;;;;;;;;;20.40;96.60;;;;;;5034026;28;20020;-85
2023/03/20 11:15:43;;;;;;;;;;;20.20;96.80;;;;;;5033884;28;19960;-85
2023/03/20 11:18:13;;;;;;;;;;;20.00;97.20;;;;;;5033458;28;19921;-85
2023/03/20 11:20:45;;;;;;;;;;;20.30;97.30;;;;;;5033982;28;19967;-85
2023/03/20 11:23:15;;;;;;;;;;;20.50;96.50;;;;;;5033546;28;20020;-85
2023/03/20 11:25:50;;;;;;;;;;;20.50;96.20;;;;;;5033643;28;19935;-85
2023/03/20 11:28:19;;;;;;;;;;;20.60;96.00;;;;;;5033073;28;19948;-85
2023/03/20 11:30:50;;;;;;;;;;;20.10;96.10;;;;;;5033477;28;19968;-85
2023/03/20 11:33:32;;;;;;;;;;;19.90;96.40;;;;;;5033688;28;19967;-85
2023/03/20 11:36:00;;;;;;;;;;;19.90;96.90;;;;;;5033624;28;19921;-85
2023/03/20 11:38:29;;;;;;;;;;;20.00;96.90;;;;;;5033060;28;19921;-84
2023/03/20 11:40:58;;;;;;;;;;;20.10;96.70;;;;;;5032110;28;19995;-85
2023/03/20 11:43:27;;;;;;;;;;;20.30;96.80;;;;;;5033088;28;19925;-85
2023/03/20 11:45:58;;;;;;;;;;;20.50;96.70;;;;;;5033754;28;19925;-85
2023/03/20 11:48:35;;;;;;;;;;;20.60;96.40;;;;;;5033058;28;19921;-85
2023/03/20 11:51:05;;;;;;;;;;;20.50;96.50;;;;;;5033170;28;20039;-85
2023/03/20 11:53:35;;;;;;;;;;;20.50;96.60;;;;;;5033038;28;19983;-85
2023/03/20 11:56:06;;;;;;;;;;;20.20;96.50;;;;;;5033069;28;19921;-85
2023/03/20 11:58:36;;;;;;;;;;;19.90;96.80;;;;;;5032930;28;19959;-85
2023/03/20 12:01:08;;;;;;;;;;;19.70;97.20;;;;;;5033131;28;19968;-84
2023/03/20 12:03:42;;;;;;;;;;;19.70;96.90;;;;;;5033129;28;20007;-85
2023/03/20 12:06:14;;;;;;;;;;;19.70;97.40;;;;;;5032758;28;19974;-84
2023/03/20 12:08:45;;;;;;;;;;;20.10;97.40;;;;;;5032881;28;19921;-85
2023/03/20 12:11:21;;;;;;;;;;;20.40;97.20;;;;;;5032989;28;19928;-85
2023/03/20 12:13:50;;;;;;;;;;;20.10;97.20;;;;;;5032680;28;19975;-85
2023/03/20 12:16:23;;;;;;;;;;;20.50;97.10;;;;;;5033001;28;20012;-84
2023/03/20 12:18:54;;;;;;;;;;;20.40;97.00;;;;;;5032842;28;19921;-85
2023/03/20 12:21:24;;;;;;;;;;;20.60;96.70;;;;;;5032870;28;19947;-84
2023/03/20 12:23:55;;;;;;;;;;;20.30;96.50;;;;;;5032882;28;19975;-84
2023/03/20 12:26:25;;;;;;;;;;;20.00;96.60;;;;;;5033108;28;19988;-85
2023/03/20 12:28:56;;;;;;;;;;;19.70;97.00;;;;;;5032359;28;20012;-84
2023/03/20 12:31:30;;;;;;;;;;;19.40;97.10;;;;;;5032957;28;20003;-84
2023/03/20 12:34:00;;;;;;;;;;;19.10;97.60;;;;;;5032672;28;19931;-85
2023/03/20 12:36:31;;;;;;;;;;;18.90;97.80;;;;;;5032751;28;19924;-84
2023/03/20 12:38:59;;;;;;;;;;;18.80;98.10;;;;;;5032316;28;19968;-85
2023/03/20 12:41:29;;;;;;;;;;;18.40;98.20;;;;;;5032236;28;19929;-84
2023/03/20 12:44:06;;;;;;;;;;;18.50;98.40;;;;;;5032671;28;20020;-84
2023/03/20 12:46:39;;;;;;;;;;;18.40;98.30;;;;;;5033044;28;19928;-85
2023/03/20 12:49:12;;;;;;;;;;;18.50;98.50;;;;;;5032467;28;19921;-85
2023/03/20 12:51:44;;;;;;;;;;;18.80;98.20;;;;;;5033054;28;20011;-84
2023/03/20 12:54:19;;;;;;;;;;;18.90;97.70;;;;;;5033151;28;19920;-85
2023/03/20 12:56:55;;;;;;;;;;;19.20;97.60;;;;;;5035783;28;19961;-84
2023/03/20 12:59:25;;;;;;;;;;;19.30;97.50;;;;;;5036974;28;19921;-85
2023/03/20 13:01:57;;;;;;;;;;;19.10;97.40;;;;;;5036939;28;19927;-85
2023/03/20 13:04:40;;;;;;;;;;;18.90;98.00;;;;;;5036486;28;19921;-84
2023/03/20 13:07:15;;;;;;;;;;;18.60;98.40;;;;;;5035327;28;19931;-84
2023/03/20 13:09:51;;;;;;;;;;;18.50;98.60;;;;;;5036084;28;19943;-85
2023/03/20 13:12:25;;;;;;;;;;;18.40;98.60;;;;;;5036238;28;19925;-84
2023/03/20 13:14:58;;;;;;;;;;;18.20;98.90;;;;;;5036135;28;19927;-84
2023/03/20 13:17:31;;;;;;;;;;;18.10;99.30;;;;;;5036094;28;19960;-84
2023/03/20 13:20:11;;;;;;;;;;;18.40;99.00;;;;;;5036001;28;20019;-84
2023/03/20 13:22:47;;;;;;;;;;;18.70;98.60;;;;;;5035598;28;19928;-84
2023/03/20 13:25:22;;;;;;;;;;;18.90;98.00;;;;;;5035976;28;20001;-84
2023/03/20 13:27:53;;;;;;;;;;;19.00;98.00;;;;;;5035626;28;19988;-84
2023/03/20 13:30:26;;;;;;;;;;;19.10;97.60;;;;;;5036388;28;19921;-84
2023/03/20 13:33:02;;;;;;;;;;;19.20;97.70;;;;;;5035513;28;19969;-84
2023/03/20 13:35:41;;;;;;;;;;;19.10;97.40;;;;;;5035627;28;19965;-84
2023/03/20 13:38:12;;;;;;;;;;;19.10;97.50;;;;;;5035716;28;19920;-84